Weather at Burnet Municipal Kate Craddock Field

Public forecast

Using degrees Fahrenheit for public forecast. Weather courtesy of forecast.io.

Current aviation weather report (METAR) for Burnet Municipal Kate Craddock Field

Report is more than 6 hours old.

Retrieved 2022/09/17 18:53 UTC (14 days ago):

KBMQ 171853Z AUTO 16008KT 120V190 10SM FEW050 SCT060 32/20 A3003 RMK AO2 SLP150 T03220200

Closest aviation forecast (TAF) to Burnet Municipal Kate Craddock Field

Forecast is more than 12 hours old.

Closest forecast is Killeen-Fort Hood Regional Airport / Robert Gray Army Air Field, 28.9 nm (53.5 km) NE. Retrieved 2022/09/17 16:58 UTC (14 days ago):

TAF KGRK 171600Z 1716/1822 19009KT 9999 SCT030 BKN045 BKN065 QNH2993INS BECMG 1809/1810 17006KT 9999 SCT020 BKN030 QNH2999INS BECMG 1814/1815 17006KT 9999 BKN010 BKN020 QNH3006INS BECMG 1815/1816 17006KT 9999 FEW020 QNH2996INS TX34/1721Z TN22/1812Z